New Lisbon, NJ (08064)

11:19 AM EST on December 04, 2016 (GMT -0500)
CENTRAL NEW JERSEY | | Change Station

Elev 63 ft 39.95 °N, 74.63 °W | Updated 4 seconds ago

Clear
Clear
47.2 °F
Feels Like 46 °F
N
4.0
Wind Variable Wind from NW
Gusts 6.0 mph

Today
High -- | Low -- °F
--% Chance of Precip.
Yesterday
High -- | Low -- °F
Precip. -- in
Pressure 30.21 in
Visibility 10.0 miles
Clouds Clear
Windchill 46 °F
Dew Point 33 °F
Humidity 58%
Rainfall 0.00 in
Snow Depth Not available.
7:04 AM 4:33 PM
Waxing Crescent, 23% visible
METAR KWRI 041558Z AUTO 31007KT 10SM CLR 07/M03 A3021 RMK AO2 SLP230 T00731033
Pressure 30.21 in
Visibility 10.0 miles
Clouds Clear
Windchill 46 °F
Dew Point 33 °F
Humidity 58%
Rainfall 0.00 in
Snow Depth Not available.
7:04 AM 4:33 PM
Waxing Crescent, 23% visible
METAR KWRI 041558Z AUTO 31007KT 10SM CLR 07/M03 A3021 RMK AO2 SLP230 T00731033

10-Day Weather Forecast

Almanac

Astronomy

Dec. 04, 2016 Rise Set
Actual Time
Civil Twilight
Nautical Twilight
Astronomical Twilight
Moon
Length of Visible Light
Length of Day
Tomorrow will be .
, % of the Moon is Illuminated

Today's Extremes

State Highs State Lows

Community

WunderPhotos

Upload Photos

1,955,616 photos uploaded!

WunderBlog® & News

Nearby

Air Quality

  Air Quality AQ Index Pollutant
Not available.

Snow Depth

Station Depth Elevation

Earthquake Activity

City Distance Mag. Time & Date
Minimum magnitude displayed is 2.5.

Coastal Water Temperatures

Place Temperature

Stations

Nearby Weather Stations

Station Location Temp. Windchill Dew Point Humidity Wind Precip. Elev Updated Type
                   

Watches & Warnings

There are currently no watches in effect.